Time;durP1;ratioP1;P1;durP2;ratioP2;P2;SDS_P1;SDS_P2;PMS_P1;PMS_P2;Temp;Humidity;BMP_temperature;BMP_pressure;BME280_temperature;BME280_humidity;BME280_pressure;Samples;Min_cycle;Max_cycle;Signal;HPM_P1;HPM_P2
2020/12/12 00:00:48;;;;;;;18.62;6.20;;;;;;;4.34;94.06;100456.73;1830261;78;21358;-56
2020/12/12 00:03:16;;;;;;;17.62;5.05;;;;;;;4.36;94.41;100455.41;1830310;77;21047;-56
2020/12/12 00:05:43;;;;;;;21.05;6.35;;;;;;;4.37;94.35;100485.03;1830216;78;21039;-56
2020/12/12 00:08:13;;;;;;;17.42;5.60;;;;;;;4.37;94.13;100454.50;1826283;77;20935;-56
2020/12/12 00:10:41;;;;;;;18.45;6.22;;;;;;;4.37;94.22;100459.81;1824305;78;21456;-56
2020/12/12 00:13:09;;;;;;;22.98;6.42;;;;;;;4.37;94.38;100457.16;1824316;78;21189;-56
2020/12/12 00:15:36;;;;;;;20.57;6.42;;;;;;;4.38;94.58;100462.43;1824197;78;21251;-56
2020/12/12 00:18:07;;;;;;;24.10;6.30;;;;;;;4.40;94.61;100455.78;1824248;78;21410;-56
2020/12/12 00:20:35;;;;;;;21.40;6.17;;;;;;;4.41;94.57;100466.83;1824151;78;22041;-57
2020/12/12 00:23:04;;;;;;;24.98;6.22;;;;;;;4.41;94.64;100454.88;1824294;77;21451;-56
2020/12/12 00:25:32;;;;;;;18.42;6.08;;;;;;;4.38;94.58;100449.16;1824236;78;21534;-57
2020/12/12 00:28:00;;;;;;;24.10;6.80;;;;;;;4.36;94.72;100471.33;1824062;78;21122;-57
2020/12/12 00:30:27;;;;;;;25.12;6.83;;;;;;;4.35;94.96;100461.61;1824202;77;21063;-57
2020/12/12 00:32:55;;;;;;;19.60;6.65;;;;;;;4.36;95.46;100451.42;1824123;78;21035;-56
2020/12/12 00:35:22;;;;;;;22.05;6.60;;;;;;;4.36;95.65;100442.13;1824243;78;21054;-55
2020/12/12 00:37:50;;;;;;;27.65;6.33;;;;;;;4.35;95.72;100437.72;1837641;78;21437;-56
2020/12/12 00:40:17;;;;;;;24.98;6.35;;;;;;;4.35;96.00;100443.89;1840210;78;21024;-55
2020/12/12 00:42:45;;;;;;;19.20;5.40;;;;;;;4.36;96.24;100448.77;1840151;78;21072;-56
2020/12/12 00:45:13;;;;;;;29.70;6.40;;;;;;;4.36;96.53;100458.06;1840195;78;21116;-55
2020/12/12 00:47:41;;;;;;;20.32;7.17;;;;;;;4.34;96.60;100435.97;1840254;78;21100;-56
2020/12/12 00:50:09;;;;;;;18.35;6.10;;;;;;;4.32;96.86;100461.20;1840305;78;22318;-55
2020/12/12 00:52:36;;;;;;;26.93;6.85;;;;;;;4.30;97.09;100444.41;1840145;78;21056;-56
2020/12/12 00:55:04;;;;;;;27.22;7.10;;;;;;;4.26;97.26;100422.34;1840200;78;20918;-55
2020/12/12 00:57:32;;;;;;;24.15;6.85;;;;;;;4.27;97.60;100440.48;1840248;78;21147;-56
2020/12/12 00:59:59;;;;;;;23.55;6.62;;;;;;;4.26;97.66;100442.24;1840174;78;21097;-56
2020/12/12 01:02:27;;;;;;;32.85;6.35;;;;;;;4.26;97.83;100432.09;1840241;78;21360;-56
2020/12/12 01:04:54;;;;;;;24.52;6.40;;;;;;;4.24;98.03;100417.50;1840103;78;21068;-56
2020/12/12 01:07:22;;;;;;;23.45;6.65;;;;;;;4.22;97.99;100427.27;1841159;77;21068;-55
2020/12/12 01:09:50;;;;;;;19.52;6.12;;;;;;;4.18;97.93;100412.30;1846311;77;21543;-56
2020/12/12 01:12:18;;;;;;;17.55;5.65;;;;;;;4.15;98.23;100418.50;1846280;77;21210;-56
2020/12/12 01:14:45;;;;;;;15.58;6.08;;;;;;;4.18;98.75;100428.22;1846232;77;21247;-56
2020/12/12 01:17:13;;;;;;;23.95;7.50;;;;;;;4.18;98.78;100425.56;1846112;77;21163;-56
2020/12/12 01:19:41;;;;;;;21.48;5.85;;;;;;;4.16;98.77;100432.67;1846092;77;21108;-56
2020/12/12 01:22:09;;;;;;;23.52;5.75;;;;;;;4.13;98.96;100411.48;1846094;77;21171;-56
2020/12/12 01:24:36;;;;;;;18.98;5.37;;;;;;;4.10;99.14;100450.01;1846093;77;21104;-56
2020/12/12 01:27:04;;;;;;;14.03;6.00;;;;;;;4.08;99.54;100400.03;1818278;77;21317;-56
2020/12/12 01:29:31;;;;;;;21.82;5.22;;;;;;;4.05;100.00;100409.37;1846282;77;21127;-56
2020/12/12 01:31:59;;;;;;;21.68;5.60;;;;;;;4.05;100.00;100398.32;1846209;77;21108;-57
2020/12/12 01:34:26;;;;;;;22.37;6.03;;;;;;;4.01;100.00;100408.09;1846317;77;21088;-56
2020/12/12 01:36:54;;;;;;;19.20;5.75;;;;;;;3.99;100.00;100380.70;1839114;77;21051;-57
2020/12/12 01:39:22;;;;;;;19.17;5.97;;;;;;;3.99;100.00;100393.97;1830432;77;21513;-56
2020/12/12 01:41:54;;;;;;;17.40;5.62;;;;;;;3.96;100.00;100404.62;1830297;78;21110;-56
2020/12/12 01:44:22;;;;;;;23.42;5.85;;;;;;;3.92;100.00;100395.39;1830394;77;21011;-56
2020/12/12 01:46:49;;;;;;;21.55;6.17;;;;;;;3.90;100.00;100403.39;1830443;78;21550;-56
2020/12/12 01:49:17;;;;;;;22.22;6.05;;;;;;;3.90;100.00;100396.76;1830376;78;21063;-56
2020/12/12 01:51:44;;;;;;;16.87;5.80;;;;;;;3.92;100.00;100389.66;1830465;78;21399;-56
2020/12/12 01:54:13;;;;;;;14.95;5.30;;;;;;;3.94;100.00;100397.57;1830285;78;21067;-56
2020/12/12 01:56:40;;;;;;;18.92;5.30;;;;;;;3.92;100.00;100409.98;1830449;77;21102;-56
2020/12/12 01:59:09;;;;;;;26.55;6.20;;;;;;;3.88;100.00;100395.91;1829492;77;21161;-56
2020/12/12 02:01:39;;;;;;;18.27;6.08;;;;;;;3.85;100.00;100395.91;1830489;78;21035;-56
2020/12/12 02:04:07;;;;;;;18.02;7.03;;;;;;;3.81;100.00;100376.53;1830446;77;23512;-56
2020/12/12 02:06:37;;;;;;;21.97;7.45;;;;;;;3.81;100.00;100384.92;1830378;78;21168;-56
2020/12/12 02:09:04;;;;;;;19.50;6.25;;;;;;;3.78;100.00;100377.02;1830430;77;21553;-56
2020/12/12 02:11:31;;;;;;;17.55;6.70;;;;;;;3.77;100.00;100368.63;1830731;78;21098;-56
2020/12/12 02:13:59;;;;;;;16.15;5.97;;;;;;;3.75;100.00;100371.75;1830730;77;21125;-56
2020/12/12 02:16:26;;;;;;;20.45;6.45;;;;;;;3.73;100.00;100369.11;1830613;78;21317;-57
2020/12/12 02:18:54;;;;;;;17.73;6.28;;;;;;;3.69;100.00;100370.94;1830616;78;21057;-56
2020/12/12 02:21:25;;;;;;;20.00;6.50;;;;;;;3.67;100.00;100369.19;1830692;78;21095;-56
2020/12/12 02:23:53;;;;;;;24.32;7.20;;;;;;;3.65;100.00;100355.08;1830640;78;21043;-56
2020/12/12 02:26:21;;;;;;;26.93;7.00;;;;;;;3.63;100.00;100351.11;1830646;78;21101;-55
2020/12/12 02:28:53;;;;;;;22.45;6.78;;;;;;;3.63;100.00;100360.86;1830667;78;23447;-56
2020/12/12 02:31:27;;;;;;;22.30;7.17;;;;;;;3.66;100.00;100344.91;1830504;78;21141;-56
2020/12/12 02:33:55;;;;;;;21.33;6.62;;;;;;;3.66;100.00;100367.01;1830850;78;21513;-55
2020/12/12 02:36:23;;;;;;;23.15;7.20;;;;;;;3.65;100.00;100352.43;1834990;77;21567;-56
2020/12/12 02:38:51;;;;;;;24.05;7.58;;;;;;;3.62;100.00;100354.66;1849190;77;21523;-56
2020/12/12 02:41:19;;;;;;;22.80;7.37;;;;;;;3.60;100.00;100368.85;1849198;77;21338;-56
2020/12/12 02:43:49;;;;;;;21.77;6.85;;;;;;;3.59;100.00;100363.98;1849114;77;21072;-56
2020/12/12 02:46:16;;;;;;;22.07;7.25;;;;;;;3.58;100.00;100368.42;1849212;77;20878;-56
2020/12/12 02:48:44;;;;;;;19.02;6.95;;;;;;;3.60;100.00;100361.76;1849129;77;21056;-56
2020/12/12 02:51:12;;;;;;;22.07;7.05;;;;;;;3.59;100.00;100357.35;1849169;77;21107;-56
2020/12/12 02:53:39;;;;;;;28.52;7.80;;;;;;;3.59;100.00;100345.42;1849166;77;21183;-56
2020/12/12 02:56:07;;;;;;;19.37;7.45;;;;;;;3.62;100.00;100349.36;1849184;77;21056;-56
2020/12/12 02:58:34;;;;;;;18.50;7.50;;;;;;;3.66;100.00;100339.60;1849067;77;21028;-56
2020/12/12 03:01:03;;;;;;;16.75;6.60;;;;;;;3.67;100.00;100361.23;1849222;77;21092;-56
2020/12/12 03:03:30;;;;;;;22.73;7.42;;;;;;;3.66;100.00;100340.49;1849098;77;21150;-56
2020/12/12 03:05:59;;;;;;;17.23;6.92;;;;;;;3.65;100.00;100338.73;1849216;77;21364;-56
2020/12/12 03:08:27;;;;;;;19.20;7.35;;;;;;;3.69;100.00;100339.56;1846217;77;21106;-56
2020/12/12 03:10:55;;;;;;;24.05;7.15;;;;;;;3.68;100.00;100350.62;1840299;78;21044;-56
2020/12/12 03:13:22;;;;;;;18.17;6.42;;;;;;;3.67;100.00;100351.95;1840332;78;21106;-56
2020/12/12 03:15:50;;;;;;;17.48;6.78;;;;;;;3.66;100.00;100347.12;1840449;78;22352;-56
2020/12/12 03:18:18;;;;;;;22.40;6.22;;;;;;;3.66;100.00;100356.41;1840706;78;22236;-56
2020/12/12 03:20:45;;;;;;;22.07;7.58;;;;;;;3.65;100.00;100363.93;1840278;78;21550;-56
2020/12/12 03:23:13;;;;;;;18.55;7.15;;;;;;;3.66;100.00;100356.41;1840461;78;21592;-56
2020/12/12 03:25:40;;;;;;;19.57;6.58;;;;;;;3.64;100.00;100354.19;1840236;78;21199;-56
2020/12/12 03:28:08;;;;;;;24.67;7.25;;;;;;;3.61;100.00;100351.58;1840326;78;21136;-56
2020/12/12 03:30:36;;;;;;;20.02;7.10;;;;;;;3.61;100.00;100337.00;1840271;78;21703;-56
2020/12/12 03:33:05;;;;;;;24.85;6.20;;;;;;;3.63;100.00;100336.53;1840265;78;21104;-56
2020/12/12 03:35:33;;;;;;;19.17;6.50;;;;;;;3.66;100.00;100348.87;1840157;78;21228;-56
2020/12/12 03:38:03;;;;;;;20.45;6.87;;;;;;;3.68;100.00;100355.93;1825377;78;21031;-56
2020/12/12 03:40:33;;;;;;;17.40;6.75;;;;;;;3.66;100.00;100343.14;1824152;78;21122;-56
2020/12/12 03:43:00;;;;;;;20.23;6.97;;;;;;;3.60;100.00;100337.90;1824179;78;21396;-56
2020/12/12 03:45:28;;;;;;;15.55;5.85;;;;;;;3.57;100.00;100359.16;1824172;78;21118;-56
2020/12/12 03:47:56;;;;;;;15.55;5.65;;;;;;;3.55;100.00;100343.72;1824111;78;21066;-56
2020/12/12 03:50:29;;;;;;;12.93;5.15;;;;;;;3.55;100.00;100329.14;1824275;78;20948;-56
2020/12/12 03:52:57;;;;;;;14.73;4.83;;;;;;;3.55;100.00;100322.51;1824255;78;21177;-56
2020/12/12 03:55:24;;;;;;;14.43;4.80;;;;;;;3.56;100.00;100317.63;1824378;78;22104;-56
2020/12/12 03:57:51;;;;;;;18.25;6.35;;;;;;;3.59;100.00;100350.73;1824198;78;21028;-56
2020/12/12 04:00:19;;;;;;;16.90;5.20;;;;;;;3.57;100.00;100329.98;1824315;78;21150;-56
2020/12/12 04:02:46;;;;;;;14.23;5.20;;;;;;;3.56;100.00;100337.08;1824178;78;21142;-56
2020/12/12 04:05:14;;;;;;;12.03;4.50;;;;;;;3.55;100.00;100325.16;1824188;78;21091;-56
2020/12/12 04:07:42;;;;;;;14.83;4.72;;;;;;;3.55;100.00;100322.51;1824182;78;21246;-57
2020/12/12 04:10:10;;;;;;;16.77;5.33;;;;;;;3.57;100.00;100328.23;1823995;77;21125;-57
2020/12/12 04:12:38;;;;;;;17.50;5.65;;;;;;;3.54;100.00;100330.92;1824262;78;20933;-56
2020/12/12 04:15:05;;;;;;;12.10;4.70;;;;;;;3.53;100.00;100344.19;1824110;78;21094;-57
2020/12/12 04:17:33;;;;;;;7.85;3.42;;;;;;;3.51;100.00;100335.37;1824257;78;21063;-56
2020/12/12 04:20:00;;;;;;;10.10;3.40;;;;;;;3.52;100.00;100327.86;1824131;78;21358;-57
2020/12/12 04:22:28;;;;;;;8.58;3.45;;;;;;;3.52;100.00;100333.16;1824252;78;21051;-57
2020/12/12 04:24:55;;;;;;;9.53;3.42;;;;;;;3.51;100.00;100338.03;1824194;77;20921;-57
2020/12/12 04:27:23;;;;;;;12.68;4.20;;;;;;;3.51;100.00;100322.98;1824141;78;21043;-56
2020/12/12 04:29:50;;;;;;;9.03;3.70;;;;;;;3.52;100.00;100322.09;1824164;78;21083;-56
2020/12/12 04:32:18;;;;;;;9.93;3.83;;;;;;;3.54;100.00;100311.48;1824245;78;21375;-57
2020/12/12 04:34:46;;;;;;;7.53;3.05;;;;;;;3.54;100.00;100308.83;1824026;78;21083;-56
2020/12/12 04:37:13;;;;;;;7.80;3.12;;;;;;;3.58;100.00;100314.52;1833533;77;21032;-56
2020/12/12 04:39:41;;;;;;;7.40;2.50;;;;;;;3.61;100.00;100324.21;1840220;78;21001;-56
2020/12/12 04:42:10;;;;;;;6.67;3.05;;;;;;;3.62;100.00;100325.50;1840209;78;21201;-56
2020/12/12 04:44:40;;;;;;;6.47;2.80;;;;;;;3.63;100.00;100335.20;1840250;78;21303;-57
2020/12/12 04:47:07;;;;;;;8.00;2.83;;;;;;;3.62;100.00;100325.50;1840178;78;21476;-57
2020/12/12 04:49:35;;;;;;;8.05;2.52;;;;;;;3.66;100.00;100335.63;1840254;78;20902;-56
2020/12/12 04:52:04;;;;;;;7.33;2.37;;;;;;;3.66;100.00;100320.61;1840146;78;21136;-57
2020/12/12 04:54:33;;;;;;;5.85;2.25;;;;;;;3.67;100.00;100327.66;1840286;78;21104;-56
2020/12/12 04:57:04;;;;;;;4.47;1.77;;;;;;;3.69;100.00;100316.59;1840319;78;21346;-57
2020/12/12 04:59:33;;;;;;;3.62;1.85;;;;;;;3.73;100.00;100326.68;1840178;78;20978;-57
2020/12/12 05:02:02;;;;;;;3.27;1.50;;;;;;;3.73;100.00;100328.00;1840214;78;21107;-57
2020/12/12 05:04:30;;;;;;;2.98;1.95;;;;;;;3.76;100.00;100327.10;1840189;78;21132;-57
2020/12/12 05:06:57;;;;;;;2.90;1.40;;;;;;;3.73;100.00;100323.59;1840206;78;21036;-57
2020/12/12 05:09:27;;;;;;;3.37;1.85;;;;;;;3.76;100.00;100333.30;1840110;78;22462;-57
2020/12/12 05:11:55;;;;;;;8.48;1.90;;;;;;;3.77;100.00;100335.48;1840225;78;21044;-57
2020/12/12 05:14:23;;;;;;;4.45;2.02;;;;;;;3.78;100.00;100343.86;1810175;78;21116;-57
2020/12/12 05:16:54;;;;;;;3.37;1.82;;;;;;;3.78;100.00;100341.21;1840231;78;21104;-56
2020/12/12 05:19:21;;;;;;;4.03;1.80;;;;;;;3.78;100.00;100354.47;1840191;78;21112;-56
2020/12/12 05:21:51;;;;;;;5.53;2.00;;;;;;;3.78;100.00;100346.52;1840268;78;21320;-56
2020/12/12 05:24:18;;;;;;;4.58;1.92;;;;;;;3.76;100.00;100353.62;1840216;78;21167;-56
2020/12/12 05:26:46;;;;;;;5.92;1.82;;;;;;;3.78;100.00;100363.75;1840274;78;21148;-56
2020/12/12 05:29:14;;;;;;;5.08;2.15;;;;;;;3.78;100.00;100343.86;1840170;77;21136;-56
2020/12/12 05:31:43;;;;;;;7.58;2.08;;;;;;;3.78;100.00;100350.49;1840249;78;21100;-56
2020/12/12 05:34:15;;;;;;;6.22;1.80;;;;;;;3.79;100.00;100370.81;1840222;78;21354;-56
2020/12/12 05:36:44;;;;;;;6.28;2.12;;;;;;;3.77;100.00;100352.72;1835481;78;21557;-56
2020/12/12 05:39:13;;;;;;;3.80;2.55;;;;;;;3.74;100.00;100353.62;1827302;78;21086;-56
2020/12/12 05:41:42;;;;;;;4.12;1.82;;;;;;;3.76;100.00;100366.88;1827281;78;21129;-56
2020/12/12 05:44:09;;;;;;;2.45;1.57;;;;;;;3.76;100.00;100362.90;1827382;78;21621;-57
2020/12/12 05:46:37;;;;;;;6.28;2.30;;;;;;;3.78;100.00;100375.25;1827232;78;22168;-55
2020/12/12 05:49:05;;;;;;;6.50;2.02;;;;;;;3.77;100.00;100354.05;1827312;77;21047;-56
2020/12/12 05:51:33;;;;;;;4.33;1.92;;;;;;;3.74;100.00;100358.92;1827115;78;21114;-56
2020/12/12 05:54:01;;;;;;;4.92;1.90;;;;;;;3.72;100.00;100379.28;1827289;77;21118;-56
2020/12/12 05:56:31;;;;;;;3.35;1.62;;;;;;;3.72;100.00;100368.25;1827258;78;21434;-56
2020/12/12 05:58:59;;;;;;;7.22;1.77;;;;;;;3.71;100.00;100351.02;1809290;78;22369;-56
2020/12/12 06:01:30;;;;;;;6.10;1.87;;;;;;;3.70;100.00;100376.67;1827231;78;21095;-57
2020/12/12 06:04:09;;;;;;;6.60;2.20;;;;;;;3.69;100.00;100360.34;1827402;78;21483;-56
2020/12/12 06:06:45;;;;;;;2.47;1.60;;;;;;;3.67;100.00;100367.44;1825814;77;21062;-56
2020/12/12 06:09:14;;;;;;;6.10;2.12;;;;;;;3.65;100.00;100361.28;1827145;78;21059;-56
2020/12/12 06:11:46;;;;;;;6.90;1.90;;;;;;;3.63;100.00;100356.41;1827371;78;21117;-57
2020/12/12 06:14:14;;;;;;;7.17;2.12;;;;;;;3.62;100.00;100353.80;1827421;78;21124;-56
2020/12/12 06:16:42;;;;;;;6.53;2.25;;;;;;;3.63;100.00;100348.46;1827502;78;20995;-56
2020/12/12 06:19:17;;;;;;;3.90;1.65;;;;;;;3.66;100.00;100355.52;1827369;78;21162;-57
2020/12/12 06:21:47;;;;;;;4.30;1.57;;;;;;;3.66;100.00;100355.08;1827623;78;21098;-57
2020/12/12 06:24:18;;;;;;;4.58;1.70;;;;;;;3.66;100.00;100364.36;1827432;78;21270;-55
2020/12/12 06:27:05;;;;;;;2.75;1.72;;;;;;;3.67;100.00;100368.77;1827434;78;21525;-57
2020/12/12 06:29:39;;;;;;;5.08;1.90;;;;;;;3.67;100.00;100376.72;1827555;78;21083;-56
2020/12/12 06:32:16;;;;;;;5.87;1.90;;;;;;;3.69;100.00;100368.29;1827529;78;21044;-56
2020/12/12 06:34:49;;;;;;;3.92;1.65;;;;;;;3.69;100.00;100374.03;1827552;78;21083;-56
2020/12/12 06:37:35;;;;;;;7.87;1.75;;;;;;;3.68;100.00;100378.47;1825508;78;21466;-56
2020/12/12 06:40:11;;;;;;;6.80;1.77;;;;;;;3.66;100.00;100391.30;1824215;78;20972;-56
2020/12/12 06:42:41;;;;;;;3.47;1.60;;;;;;;3.64;100.00;100375.40;1824265;78;21165;-56
2020/12/12 06:45:19;;;;;;;6.83;1.67;;;;;;;3.65;100.00;100383.81;1824335;78;21450;-56
2020/12/12 06:47:52;;;;;;;8.53;2.22;;;;;;;3.64;100.00;100385.14;1824266;78;21034;-57
2020/12/12 06:50:26;;;;;;;5.67;1.82;;;;;;;3.61;100.00;100388.70;1824314;78;22259;-55
2020/12/12 06:52:54;;;;;;;6.67;2.15;;;;;;;3.60;100.00;100380.31;1824426;78;21103;-55
2020/12/12 06:55:22;;;;;;;5.45;2.00;;;;;;;3.61;100.00;100387.84;1824244;78;21099;-56
2020/12/12 06:57:57;;;;;;;8.78;2.08;;;;;;;3.64;100.00;100378.05;1824329;78;21577;-56
2020/12/12 07:00:34;;;;;;;4.10;2.05;;;;;;;3.64;100.00;100393.09;1824302;78;21028;-57
2020/12/12 07:03:07;;;;;;;4.97;2.25;;;;;;;3.63;100.00;100409.44;1824248;77;21296;-56
2020/12/12 07:05:38;;;;;;;6.75;2.52;;;;;;;3.62;100.00;100397.08;1824254;78;21046;-57
2020/12/12 07:08:09;;;;;;;8.78;2.45;;;;;;;3.61;100.00;100389.16;1823267;76;21178;-56
2020/12/12 07:10:40;;;;;;;6.53;2.20;;;;;;;3.60;100.00;100416.11;1831860;77;21044;-56
2020/12/12 07:13:09;;;;;;;5.25;2.20;;;;;;;3.58;100.00;100383.00;1829257;77;21044;-56
2020/12/12 07:15:37;;;;;;;7.87;2.92;;;;;;;3.61;100.00;100390.02;1846472;77;21858;-56
2020/12/12 07:18:10;;;;;;;11.38;2.95;;;;;;;3.62;100.00;100400.20;1846299;77;21195;-57
2020/12/12 07:20:39;;;;;;;7.90;2.60;;;;;;;3.61;100.00;100398.44;1846434;77;21484;-56
2020/12/12 07:23:07;;;;;;;8.05;2.70;;;;;;;3.62;100.00;100398.41;1846306;77;21067;-56
2020/12/12 07:25:34;;;;;;;11.60;2.72;;;;;;;3.62;100.00;100418.29;1846326;77;21059;-56
2020/12/12 07:28:03;;;;;;;9.05;3.37;;;;;;;3.62;100.00;100405.50;1846350;77;21185;-57
2020/12/12 07:30:33;;;;;;;7.45;2.92;;;;;;;3.59;100.00;100411.70;1846224;77;20997;-59
2020/12/12 07:33:01;;;;;;;10.78;2.80;;;;;;;3.57;100.00;100418.36;1846251;77;21165;-57
2020/12/12 07:35:30;;;;;;;8.43;2.58;;;;;;;3.57;100.00;100424.09;1846294;77;21009;-57
2020/12/12 07:38:03;;;;;;;7.55;3.10;;;;;;;3.56;100.00;100431.62;1831972;77;21034;-57
2020/12/12 07:40:37;;;;;;;9.10;2.95;;;;;;;3.54;100.00;100422.81;1830221;78;22133;-57
2020/12/12 07:43:09;;;;;;;11.38;2.95;;;;;;;3.55;100.00;100419.27;1830195;78;21038;-56
2020/12/12 07:48:09;;;;;;;9.03;2.75;;;;;;;3.54;100.00;100417.52;1830126;78;21510;-57
2020/12/12 07:50:37;;;;;;;8.10;3.42;;;;;;;3.51;100.00;100412.25;1830206;78;21167;-57
2020/12/12 07:53:10;;;;;;;10.95;3.35;;;;;;;3.48;100.00;100404.34;1819669;77;21617;-55
2020/12/12 07:55:48;;;;;;;9.75;3.50;;;;;;;3.46;100.00;100406.13;1845875;77;25351;-56
2020/12/12 08:01:05;;;;;;;14.30;4.23;;;;;;;3.50;100.00;100411.36;1872013;74;22577;-55
2020/12/12 08:03:44;;;;;;;14.50;4.55;;;;;;;3.41;100.00;100417.63;1843931;77;21677;-55
2020/12/12 08:06:15;;;;;;;12.07;3.45;;;;;;;3.38;100.00;100420.32;1838981;77;21189;-56
2020/12/12 08:08:48;;;;;;;12.55;3.58;;;;;;;3.33;100.00;100411.55;1825589;77;21032;-57
2020/12/12 08:11:24;;;;;;;9.23;3.83;;;;;;;3.30;100.00;100426.16;1781627;77;20988;-55
2020/12/12 08:13:54;;;;;;;11.33;3.80;;;;;;;3.28;100.00;100409.40;1811843;77;21594;-56
2020/12/12 08:16:34;;;;;;;9.80;3.55;;;;;;;3.26;100.00;100400.59;1838159;77;20944;-57
2020/12/12 08:19:03;;;;;;;11.70;3.80;;;;;;;3.26;100.00;100404.56;1798411;78;21463;-56
2020/12/12 08:21:33;;;;;;;12.65;3.65;;;;;;;3.25;100.00;100429.30;1839954;77;21067;-56
2020/12/12 08:24:06;;;;;;;9.70;3.62;;;;;;;3.22;100.00;100409.47;1847851;77;21063;-57
2020/12/12 08:26:35;;;;;;;7.40;3.40;;;;;;;3.19;100.00;100413.02;1813718;77;21087;-55
2020/12/12 08:29:03;;;;;;;10.23;4.17;;;;;;;3.17;100.00;100396.69;1846196;77;21111;-57
2020/12/12 08:31:39;;;;;;;10.80;4.25;;;;;;;3.18;100.00;100412.59;1839378;77;21568;-56
2020/12/12 08:34:10;;;;;;;12.05;3.70;;;;;;;3.17;100.00;100400.67;1850886;75;21107;-57
2020/12/12 08:36:37;;;;;;;6.83;3.40;;;;;;;3.17;100.00;100404.21;1853100;77;21502;-57
2020/12/12 08:39:06;;;;;;;10.23;4.40;;;;;;;3.19;100.00;100396.23;1840679;77;21118;-57
2020/12/12 08:41:37;;;;;;;10.58;3.80;;;;;;;3.21;100.00;100412.55;1847792;77;21125;-55
2020/12/12 08:44:05;;;;;;;8.75;4.12;;;;;;;3.22;100.00;100373.70;1846179;77;21194;-56
2020/12/12 08:46:33;;;;;;;10.75;4.30;;;;;;;3.21;100.00;100377.25;1838216;77;21154;-56
2020/12/12 08:49:01;;;;;;;11.45;4.05;;;;;;;3.22;100.00;100378.54;1843899;77;20921;-56
2020/12/12 08:51:30;;;;;;;14.68;4.35;;;;;;;3.23;100.00;100378.11;1844526;75;21055;-58
2020/12/12 08:53:58;;;;;;;9.20;3.92;;;;;;;3.24;100.00;100387.81;1845640;77;21137;-56
2020/12/12 08:56:30;;;;;;;10.00;4.45;;;;;;;3.24;100.00;100370.13;1783105;80;21617;-56
2020/12/12 08:59:06;;;;;;;13.32;4.65;;;;;;;3.27;100.00;100370.55;1768683;80;21077;-55
2020/12/12 09:01:44;;;;;;;10.10;4.50;;;;;;;3.29;100.00;100367.43;1805858;77;21117;-55
2020/12/12 09:04:20;;;;;;;14.43;4.70;;;;;;;3.33;100.00;100371.80;1804845;77;21182;-55
2020/12/12 09:06:57;;;;;;;10.75;4.72;;;;;;;3.35;100.00;100375.30;1799041;78;21107;-56
2020/12/12 09:09:30;;;;;;;10.85;4.90;;;;;;;3.33;100.00;100373.59;1803230;77;21178;-56
2020/12/12 09:12:01;;;;;;;12.93;4.67;;;;;;;3.30;100.00;100373.16;1766979;80;21125;-56
2020/12/12 09:14:33;;;;;;;10.05;4.20;;;;;;;3.28;100.00;100385.09;1773712;80;21066;-56
2020/12/12 09:17:04;;;;;;;13.38;4.67;;;;;;;3.27;100.00;100370.09;1781890;79;21548;-56
2020/12/12 09:19:34;;;;;;;14.33;5.20;;;;;;;3.28;100.00;100387.73;1786390;79;22569;-56
2020/12/12 09:22:10;;;;;;;13.50;4.87;;;;;;;3.27;100.00;100370.55;1786170;79;21357;-57
2020/12/12 09:24:38;;;;;;;13.80;4.97;;;;;;;3.27;100.00;100394.40;1776014;78;21141;-56
2020/12/12 09:27:08;;;;;;;15.50;4.65;;;;;;;3.26;100.00;100370.98;1790411;79;21152;-57
2020/12/12 09:29:37;;;;;;;13.93;5.53;;;;;;;3.26;100.00;100363.50;1777987;80;21607;-56
2020/12/12 09:32:06;;;;;;;13.05;5.30;;;;;;;3.27;100.00;100356.84;1777429;80;21109;-56
2020/12/12 09:34:37;;;;;;;12.40;5.42;;;;;;;3.30;100.00;100371.83;1766576;80;22254;-56
2020/12/12 09:37:05;;;;;;;9.18;4.53;;;;;;;3.32;100.00;100370.05;1815921;77;21381;-56
2020/12/12 09:39:33;;;;;;;11.97;5.47;;;;;;;3.35;100.00;100373.98;1792632;78;21236;-56
2020/12/12 09:42:03;;;;;;;12.03;4.78;;;;;;;3.37;100.00;100354.09;1784872;78;21622;-57
2020/12/12 09:44:30;;;;;;;11.18;5.12;;;;;;;3.40;100.00;100355.39;1794607;78;21120;-56
2020/12/12 09:46:58;;;;;;;15.23;5.50;;;;;;;3.41;100.00;100350.05;1806296;78;21193;-56
2020/12/12 09:49:26;;;;;;;12.90;4.92;;;;;;;3.42;100.00;100352.27;1768982;80;21568;-57
2020/12/12 09:51:54;;;;;;;13.48;5.05;;;;;;;3.39;100.00;100350.52;1777726;79;21208;-56
2020/12/12 09:54:22;;;;;;;12.30;4.67;;;;;;;3.36;100.00;100361.16;1777257;79;21141;-56
2020/12/12 09:56:49;;;;;;;14.43;5.25;;;;;;;3.35;100.00;100369.14;1785226;79;21080;-56
2020/12/12 09:59:17;;;;;;;15.08;5.40;;;;;;;3.35;100.00;100338.20;1793492;78;22494;-56
2020/12/12 10:01:45;;;;;;;10.98;4.90;;;;;;;3.37;100.00;100352.31;1780770;79;20990;-56
2020/12/12 10:04:13;;;;;;;12.25;5.37;;;;;;;3.39;100.00;100357.14;1764195;80;21411;-55
2020/12/12 10:06:44;;;;;;;16.48;5.75;;;;;;;3.39;100.00;100350.98;1759480;80;21062;-58
2020/12/12 10:09:12;;;;;;;14.38;5.42;;;;;;;3.40;100.00;100356.71;1754363;80;21548;-56
2020/12/12 10:11:43;;;;;;;12.00;5.50;;;;;;;3.41;100.00;100361.97;1760733;79;21422;-56
2020/12/12 10:14:13;;;;;;;13.05;5.50;;;;;;;3.45;100.00;100362.83;1768623;79;21171;-57
2020/12/12 10:16:41;;;;;;;13.05;4.65;;;;;;;3.47;100.00;100369.45;1764499;80;21061;-55
2020/12/12 10:19:09;;;;;;;12.30;4.55;;;;;;;3.47;100.00;100381.38;1765788;80;21591;-56
2020/12/12 10:21:39;;;;;;;10.10;4.50;;;;;;;3.49;100.00;100368.98;1766773;80;21137;-56
2020/12/12 10:24:07;;;;;;;8.50;4.00;;;;;;;3.52;100.00;100354.36;1777184;80;21556;-56
2020/12/12 10:26:35;;;;;;;9.98;4.15;;;;;;;3.53;100.00;100354.79;1769520;80;21208;-56
2020/12/12 10:29:03;;;;;;;8.08;3.60;;;;;;;3.52;100.00;100367.61;1776915;79;21127;-57
2020/12/12 10:31:31;;;;;;;11.03;4.47;;;;;;;3.52;100.00;100367.61;1749489;80;21645;-56
2020/12/12 10:33:59;;;;;;;12.73;4.12;;;;;;;3.48;100.00;100353.97;1795464;79;21071;-57
2020/12/12 10:36:29;;;;;;;8.50;4.00;;;;;;;3.46;100.00;100367.70;1782658;78;21260;-56
2020/12/12 10:38:57;;;;;;;12.63;4.08;;;;;;;3.44;100.00;100349.14;1769365;80;21112;-56
2020/12/12 10:41:29;;;;;;;9.15;3.83;;;;;;;3.42;100.00;100345.17;1770236;79;21224;-56
2020/12/12 10:43:57;;;;;;;10.05;4.20;;;;;;;3.43;100.00;100350.94;1774850;80;21210;-56
2020/12/12 10:46:25;;;;;;;10.78;4.30;;;;;;;3.40;100.00;100348.30;1801707;79;21102;-56
2020/12/12 10:48:54;;;;;;;15.43;4.40;;;;;;;3.36;100.00;100353.20;1810157;78;21319;-56
2020/12/12 10:51:22;;;;;;;11.50;5.12;;;;;;;3.37;100.00;100351.45;1804848;79;21071;-56
2020/12/12 10:53:51;;;;;;;10.90;4.33;;;;;;;3.35;100.00;100345.30;1787213;79;21128;-57
2020/12/12 10:56:19;;;;;;;9.80;4.30;;;;;;;3.33;100.00;100347.95;1792343;79;21063;-56
2020/12/12 10:58:47;;;;;;;11.97;4.10;;;;;;;3.33;100.00;100350.59;1789980;78;21110;-56
2020/12/12 11:01:14;;;;;;;9.30;4.00;;;;;;;3.33;100.00;100347.95;1805084;78;21417;-56
2020/12/12 11:03:42;;;;;;;9.80;4.58;;;;;;;3.34;100.00;100339.10;1811532;78;21115;-56
2020/12/12 11:06:13;;;;;;;11.15;4.33;;;;;;;3.37;100.00;100358.94;1792443;78;21116;-56
2020/12/12 11:08:41;;;;;;;10.45;4.70;;;;;;;3.40;100.00;100349.63;1798674;78;21087;-57
2020/12/12 11:11:09;;;;;;;10.98;4.42;;;;;;;3.40;100.00;100352.27;1812796;78;21083;-57
2020/12/12 11:13:38;;;;;;;11.48;4.15;;;;;;;3.41;100.00;100366.41;1808923;78;21203;-56
2020/12/12 11:16:08;;;;;;;12.53;5.40;;;;;;;3.38;100.00;100371.29;1813295;77;21107;-57
2020/12/12 11:18:36;;;;;;;11.55;4.70;;;;;;;3.37;100.00;100360.26;1798369;77;21098;-57
2020/12/12 11:21:03;;;;;;;11.12;5.12;;;;;;;3.40;100.00;100355.39;1772138;80;21184;-56
2020/12/12 11:23:31;;;;;;;11.30;5.22;;;;;;;3.43;100.00;100359.32;1789363;80;21078;-56
2020/12/12 11:25:59;;;;;;;9.33;4.10;;;;;;;3.44;100.00;100365.95;1768654;80;21188;-56
2020/12/12 11:28:26;;;;;;;16.32;5.15;;;;;;;3.41;100.00;100358.00;1797092;78;21094;-57
2020/12/12 11:30:55;;;;;;;14.60;5.20;;;;;;;3.40;100.00;100369.50;1802223;78;21195;-57
2020/12/12 11:33:23;;;;;;;10.72;4.90;;;;;;;3.41;100.00;100377.88;1788599;80;21150;-57
2020/12/12 11:36:06;;;;;;;10.70;4.72;;;;;;;3.40;100.00;100375.27;1784522;80;21066;-57